Time;durP1;ratioP1;P1;durP2;ratioP2;P2;SDS_P1;SDS_P2;PMS_P1;PMS_P2;Temp;Humidity;BMP_temperature;BMP_pressure;BME280_temperature;BME280_humidity;BME280_pressure;Samples;Min_cycle;Max_cycle;Signal;HPM_P1;HPM_P2
2022/06/21 00:02:36;;;;;;;6.57;3.75;;;;;;;13.72;92.51;100634.94;8333283;28;20041;-63
2022/06/21 00:06:37;;;;;;;11.98;4.45;;;;;;;13.80;92.32;100641.31;8326228;28;20063;-63
2022/06/21 00:10:37;;;;;;;8.05;4.38;;;;;;;13.49;93.39;100650.91;8322541;28;20079;-63
2022/06/21 00:14:39;;;;;;;17.77;5.28;;;;;;;13.25;94.02;100641.66;8319406;28;20578;-63
2022/06/21 00:18:41;;;;;;;7.68;4.80;;;;;;;13.13;93.92;100645.59;8337156;28;20045;-63
2022/06/21 00:22:41;;;;;;;11.48;5.43;;;;;;;13.06;95.40;100648.09;8323079;28;20041;-63
2022/06/21 00:26:42;;;;;;;12.88;5.60;;;;;;;13.29;98.88;100643.03;8320447;28;20033;-63
2022/06/21 00:30:44;;;;;;;13.38;5.90;;;;;;;13.30;96.51;100639.34;8321586;28;20045;-63
2022/06/21 00:34:45;;;;;;;10.65;5.95;;;;;;;13.08;99.09;100631.63;8321088;28;20178;-63
2022/06/21 00:38:46;;;;;;;10.70;5.30;;;;;;;12.77;99.93;100613.94;8321203;28;20396;-63
2022/06/21 00:42:51;;;;;;;9.57;5.10;;;;;;;12.68;100.00;100639.25;8343776;28;20127;-63
2022/06/21 00:47:00;;;;;;;10.23;5.22;;;;;;;12.38;100.00;100623.31;8321158;28;20037;-63
2022/06/21 00:51:13;;;;;;;7.22;5.07;;;;;;;12.38;100.00;100639.59;8323303;28;20037;-63
2022/06/21 00:55:23;;;;;;;9.00;4.93;;;;;;;11.95;100.00;100633.88;8333461;28;20049;-63
2022/06/21 00:59:28;;;;;;;11.70;5.63;;;;;;;12.38;100.00;100623.31;8320806;28;20592;-63
2022/06/21 01:03:40;;;;;;;11.38;5.05;;;;;;;12.53;100.00;100628.06;8320546;28;20497;-63
2022/06/21 01:07:41;;;;;;;11.75;5.00;;;;;;;12.33;100.00;100636.44;8320114;28;20040;-63
2022/06/21 01:11:46;;;;;;;12.75;4.78;;;;;;;11.60;100.00;100632.63;8320115;28;20455;-63
2022/06/21 01:15:49;;;;;;;;;;;;;;;11.77;100.00;100626.50;8328881;28;20072;-63
2022/06/21 01:19:56;;;;;;;11.52;5.45;;;;;;;11.83;100.00;100617.78;8320898;28;19917;-62
2022/06/21 01:24:10;;;;;;;7.88;5.38;;;;;;;11.93;100.00;100626.72;8317027;28;20043;-63
2022/06/21 01:28:11;;;;;;;10.35;4.88;;;;;;;11.71;100.00;100623.50;8316486;28;20385;-63
2022/06/21 01:32:11;;;;;;;9.57;5.35;;;;;;;11.75;100.00;100619.53;8316851;28;20115;-63
2022/06/21 01:36:19;;;;;;;9.27;5.28;;;;;;;11.75;100.00;100628.47;8316906;28;20048;-63
2022/06/21 01:40:26;;;;;;;10.10;5.78;;;;;;;11.97;100.00;100615.59;8317049;28;20052;-63
2022/06/21 01:44:32;;;;;;;10.50;6.47;;;;;;;11.93;100.00;100613.19;8338432;28;20045;-63
2022/06/21 01:48:38;;;;;;;13.55;5.63;;;;;;;11.90;100.00;100601.81;8335783;28;20059;-63
2022/06/21 01:52:45;;;;;;;10.75;5.35;;;;;;;11.87;100.00;100597.50;8338050;28;20075;-63
2022/06/21 01:56:47;;;;;;;10.18;5.15;;;;;;;11.83;100.00;100593.41;8316734;28;20042;-63
2022/06/21 02:00:55;;;;;;;9.93;6.10;;;;;;;11.65;100.00;100592.44;8316477;28;20505;-63
2022/06/21 02:05:01;;;;;;;11.77;5.18;;;;;;;11.25;100.00;100594.44;8315921;28;20033;-63
2022/06/21 02:09:04;;;;;;;11.95;6.03;;;;;;;11.03;100.00;100583.06;8316584;28;20345;-63
2022/06/21 02:13:16;;;;;;;11.23;6.03;;;;;;;11.24;100.00;100586.47;8317111;28;20046;-63
2022/06/21 02:17:31;;;;;;;15.50;6.28;;;;;;;11.09;100.00;100586.06;8318057;28;20041;-63
2022/06/21 02:21:40;;;;;;;11.00;6.18;;;;;;;11.10;100.00;100587.75;8336907;28;20045;-63
2022/06/21 02:25:42;;;;;;;9.20;6.10;;;;;;;10.90;100.00;100582.50;8315937;28;20034;-63
2022/06/21 02:29:46;;;;;;;8.05;5.15;;;;;;;11.11;100.00;100585.91;8314162;28;20054;-63
2022/06/21 02:33:48;;;;;;;9.07;5.40;;;;;;;11.28;100.00;100583.34;8330463;28;20050;-63
2022/06/21 02:37:53;;;;;;;9.20;5.18;;;;;;;11.25;100.00;100575.50;8337825;28;20041;-63
2022/06/21 02:42:00;;;;;;;16.23;6.10;;;;;;;11.07;100.00;100566.41;8335451;28;20570;-63
2022/06/21 02:46:08;;;;;;;13.68;5.25;;;;;;;10.81;100.00;100572.50;8322643;28;20497;-63
2022/06/21 02:50:40;;;;;;;9.15;6.22;;;;;;;10.40;100.00;100564.63;8327242;28;20123;-63
2022/06/21 02:54:52;;;;;;;10.45;6.35;;;;;;;10.42;100.00;100566.19;8311850;28;20119;-63
2022/06/21 02:58:57;;;;;;;15.05;7.22;;;;;;;10.38;100.00;100558.50;8322216;28;20095;-63
2022/06/21 03:03:00;;;;;;;11.85;6.75;;;;;;;10.50;100.00;100565.50;8321393;28;20669;-63
2022/06/21 03:07:02;;;;;;;13.88;7.50;;;;;;;10.83;100.00;100559.72;8321214;28;20408;-63
2022/06/21 03:11:03;;;;;;;10.45;6.60;;;;;;;10.82;100.00;100575.06;8322588;28;20124;-63
2022/06/21 03:15:10;;;;;;;12.50;6.53;;;;;;;10.80;100.00;100574.34;8332822;28;20049;-63
2022/06/21 03:19:21;;;;;;;13.10;7.20;;;;;;;10.73;100.00;100559.69;8330030;28;20044;-63
2022/06/21 03:23:22;;;;;;;11.20;6.82;;;;;;;10.75;100.00;100564.97;8342295;28;20065;-63
2022/06/21 03:27:31;;;;;;;12.82;7.03;;;;;;;10.56;100.00;100562.22;8336351;28;20041;-63
2022/06/21 03:31:37;;;;;;;13.35;7.50;;;;;;;10.68;100.00;100555.72;8326984;28;20045;-63
2022/06/21 03:35:37;;;;;;;11.98;6.63;;;;;;;10.43;100.00;100573.28;8320414;28;20045;-63
2022/06/21 03:44:05;;;;;;;7.78;6.60;;;;;;;10.96;100.00;100571.97;8329450;28;20100;-63
2022/06/21 03:48:16;;;;;;;10.70;6.70;;;;;;;10.93;100.00;100576.78;8342343;28;20558;-63
2022/06/21 03:52:41;;;;;;;11.95;6.63;;;;;;;10.62;100.00;100573.34;8319489;28;20569;-63
2022/06/21 03:56:49;;;;;;;13.30;6.80;;;;;;;10.42;100.00;100579.69;8319747;28;20029;-63
2022/06/21 04:00:58;;;;;;;12.02;7.10;;;;;;;10.48;100.00;100603.47;8324889;28;20052;-63
2022/06/21 04:05:08;;;;;;;7.93;5.95;;;;;;;10.66;100.00;100593.69;8343626;28;20045;-63
2022/06/21 04:09:23;;;;;;;9.85;6.75;;;;;;;10.85;100.00;100600.97;8319686;28;20041;-63
2022/06/21 04:13:34;;;;;;;10.18;6.60;;;;;;;10.94;100.00;100600.13;8335177;28;20052;-63
2022/06/21 04:18:06;;;;;;;10.85;7.60;;;;;;;11.34;100.00;100599.00;8333050;28;20073;-63
2022/06/21 04:22:16;;;;;;;8.15;6.03;;;;;;;11.20;100.00;100580.50;8320455;28;20497;-63
2022/06/21 04:26:25;;;;;;;15.27;6.28;;;;;;;11.16;100.00;100584.47;8325761;28;20368;-63
2022/06/21 04:30:32;;;;;;;14.20;7.43;;;;;;;11.34;100.00;100571.06;8340092;28;20049;-63
2022/06/21 04:34:55;;;;;;;10.25;6.53;;;;;;;11.52;100.00;100553.97;8320449;28;20045;-63
2022/06/21 04:39:19;;;;;;;9.77;5.77;;;;;;;12.01;100.00;100544.72;8321942;28;20569;-64
2022/06/21 04:43:25;;;;;;;11.40;6.23;;;;;;;12.34;100.00;100535.13;8344782;28;20045;-63
2022/06/21 04:47:33;;;;;;;16.65;5.72;;;;;;;12.46;100.00;100529.34;8330976;28;20920;-63
2022/06/21 04:51:39;;;;;;;21.05;6.35;;;;;;;12.71;100.00;100538.59;8324140;28;20072;-64
2022/06/21 04:55:52;;;;;;;17.52;7.18;;;;;;;13.00;100.00;100547.41;8319032;28;20477;-63
2022/06/21 04:59:58;;;;;;;8.48;5.43;;;;;;;13.21;99.92;100550.66;8341809;28;20063;-63
2022/06/21 05:04:04;;;;;;;18.50;6.50;;;;;;;13.39;98.21;100546.06;8343855;28;20060;-62
2022/06/21 05:08:13;;;;;;;12.65;5.78;;;;;;;13.49;99.27;100539.53;8345345;28;20061;-61
2022/06/21 05:12:22;;;;;;;16.48;5.72;;;;;;;13.50;98.29;100533.09;8316490;28;20049;-61
2022/06/21 05:16:33;;;;;;;10.93;6.88;;;;;;;13.46;97.81;100560.72;8337324;28;20051;-61
2022/06/21 05:20:37;;;;;;;11.48;6.38;;;;;;;13.71;96.57;100551.72;8334355;28;20052;-61
2022/06/21 05:24:38;;;;;;;9.40;5.63;;;;;;;13.74;97.06;100563.13;8317080;28;20126;-61
2022/06/21 05:28:48;;;;;;;21.50;6.85;;;;;;;13.67;97.24;100562.06;8329563;28;20045;-61
2022/06/21 05:32:54;;;;;;;13.32;6.20;;;;;;;14.00;96.29;100568.53;8315555;28;20045;-61
2022/06/21 05:37:01;;;;;;;13.75;6.40;;;;;;;14.04;98.12;100569.94;8329831;28;20049;-61
2022/06/21 05:41:29;;;;;;;11.93;6.65;;;;;;;14.30;96.04;100573.50;8323750;28;20455;-61
2022/06/21 05:45:34;;;;;;;16.00;6.40;;;;;;;14.83;93.10;100579.50;8321618;28;20043;-61
2022/06/21 05:49:36;;;;;;;;;;;;;;;14.92;92.40;100575.78;8332567;28;20402;-63
2022/06/21 05:53:43;;;;;;;15.80;6.50;;;;;;;15.33;92.77;100566.63;8340828;28;19931;-63
2022/06/21 05:57:49;;;;;;;14.00;5.68;;;;;;;15.40;90.62;100578.56;8329476;28;20045;-63
2022/06/21 06:01:57;;;;;;;12.35;5.88;;;;;;;15.56;90.17;100584.00;8337120;28;20053;-63
2022/06/21 06:06:04;;;;;;;12.50;6.28;;;;;;;15.58;90.67;100581.97;8319819;28;20623;-63
2022/06/21 06:10:07;;;;;;;9.50;5.85;;;;;;;15.73;92.58;100580.25;8318712;28;20918;-63
2022/06/21 06:14:07;;;;;;;9.02;6.20;;;;;;;16.03;89.24;100580.53;8327042;28;20045;-63
2022/06/21 06:18:17;;;;;;;11.77;6.32;;;;;;;16.08;88.96;100583.59;8326455;28;20037;-63
2022/06/21 06:22:25;;;;;;;13.48;6.63;;;;;;;16.41;89.99;100577.03;8327712;28;20048;-63
2022/06/21 06:26:33;;;;;;;13.88;7.32;;;;;;;16.70;85.64;100574.53;8325378;28;20068;-61
2022/06/21 06:31:01;;;;;;;16.67;7.75;;;;;;;16.88;86.31;100584.16;8324508;28;20064;-61
2022/06/21 06:35:02;;;;;;;10.35;6.70;;;;;;;16.92;84.72;100563.66;8324372;28;20033;-61
2022/06/21 06:39:12;;;;;;;12.13;6.70;;;;;;;17.09;84.46;100561.66;8325781;28;20034;-61
2022/06/21 06:43:21;;;;;;;11.55;6.50;;;;;;;17.92;82.09;100557.03;8322793;28;20045;-61
2022/06/21 06:47:28;;;;;;;12.75;6.45;;;;;;;17.90;80.30;100562.69;8337577;28;20038;-61
2022/06/21 06:51:56;;;;;;;9.68;5.95;;;;;;;18.33;76.42;100561.88;8340979;28;20037;-61
2022/06/21 06:56:03;;;;;;;12.75;5.85;;;;;;;18.67;75.20;100567.63;8336677;28;20124;-61
2022/06/21 07:00:15;;;;;;;9.88;5.53;;;;;;;18.83;74.53;100586.59;8325044;28;20044;-61
2022/06/21 07:04:19;;;;;;;14.38;6.13;;;;;;;18.74;76.03;100571.31;8322507;28;20037;-61
2022/06/21 07:08:45;;;;;;;12.20;5.88;;;;;;;18.98;74.32;100576.47;8323960;28;20045;-61
2022/06/21 07:12:47;;;;;;;9.27;5.75;;;;;;;18.67;74.70;100573.09;8328574;28;20046;-61
2022/06/21 07:16:54;;;;;;;14.95;6.25;;;;;;;19.16;75.37;100576.84;8325245;28;20044;-61
2022/06/21 07:20:55;;;;;;;11.95;6.30;;;;;;;19.27;73.95;100573.66;8337131;28;20038;-61
2022/06/21 07:25:11;;;;;;;11.10;6.22;;;;;;;19.43;71.00;100567.88;8330139;28;20033;-61
2022/06/21 07:29:18;;;;;;;19.92;6.70;;;;;;;19.42;71.20;100577.19;8326458;28;20524;-61
2022/06/21 07:33:28;;;;;;;13.27;5.80;;;;;;;19.92;71.27;100578.03;8323848;28;20045;-61
2022/06/21 07:37:34;;;;;;;12.77;6.40;;;;;;;20.25;68.45;100581.91;8324140;28;20041;-61
2022/06/21 07:41:41;;;;;;;14.10;6.68;;;;;;;19.90;69.82;100571.88;8323425;28;20509;-62
2022/06/21 07:45:47;;;;;;;15.15;7.65;;;;;;;20.16;68.39;100575.69;8323392;28;20449;-62
2022/06/21 07:49:53;;;;;;;13.43;7.65;;;;;;;19.65;70.70;100576.09;8328563;28;20142;-62
2022/06/21 07:54:02;;;;;;;12.60;6.88;;;;;;;20.67;66.75;100551.47;8323331;28;20069;-61
2022/06/21 07:58:10;;;;;;;12.95;5.20;;;;;;;20.43;64.63;100539.13;8323487;28;20042;-61
2022/06/21 08:06:57;;;;;;;10.43;5.28;;;;;;;20.18;66.37;100518.69;8333047;28;20029;-61
2022/06/21 08:11:03;;;;;;;9.98;5.43;;;;;;;20.78;65.64;100509.69;8325549;28;20037;-61
2022/06/21 08:15:04;;;;;;;9.30;3.92;;;;;;;21.13;62.54;100519.53;8332522;28;20045;-62
2022/06/21 08:19:13;;;;;;;6.95;3.88;;;;;;;20.83;63.82;100523.66;8329276;28;20032;-62
2022/06/21 08:23:21;;;;;;;14.13;4.75;;;;;;;20.97;64.02;100518.03;8331012;28;20038;-62
2022/06/21 08:27:48;;;;;;;8.52;3.20;;;;;;;21.08;58.60;100511.06;8331756;28;20034;-62
2022/06/21 08:32:02;;;;;;;6.78;3.67;;;;;;;21.03;60.99;100503.44;8321704;28;20124;-61
2022/06/21 08:36:11;;;;;;;7.18;3.45;;;;;;;21.00;62.79;100481.00;8321022;28;20537;-61
2022/06/21 08:40:39;;;;;;;6.18;3.38;;;;;;;20.72;61.59;100474.78;8321322;28;20045;-61
2022/06/21 08:49:12;;;;;;;10.20;3.47;;;;;;;21.65;59.04;100441.69;8299743;28;20391;-61
2022/06/21 08:53:39;;;;;;;11.52;4.90;;;;;;;21.86;61.18;100441.47;8259827;28;20097;-62
2022/06/21 08:58:06;;;;;;;10.80;5.00;;;;;;;21.97;59.53;100441.66;8257921;28;20038;-61
2022/06/21 09:02:46;;;;;;;9.48;4.70;;;;;;;22.39;60.29;100446.59;8264489;28;20499;-61
2022/06/21 09:07:03;;;;;;;9.63;5.70;;;;;;;21.82;59.02;100443.81;8255686;28;20042;-61
2022/06/21 09:16:17;;;;;;;14.50;5.10;;;;;;;22.09;57.37;100420.66;8355755;27;20362;-62
2022/06/21 09:20:42;;;;;;;6.13;3.28;;;;;;;22.02;56.71;100430.81;8343484;28;20083;-62
2022/06/21 09:24:58;;;;;;;6.90;3.42;;;;;;;22.18;55.71;100422.09;8347358;28;20037;-62
2022/06/21 09:29:19;;;;;;;6.10;3.15;;;;;;;22.57;55.58;100426.59;8341878;28;20041;-62
2022/06/21 09:33:48;;;;;;;7.07;3.55;;;;;;;22.34;54.66;100432.63;8347010;28;20049;-62
2022/06/21 09:38:01;;;;;;;8.07;2.90;;;;;;;22.16;55.59;100440.72;8347648;28;20119;-61
2022/06/21 09:46:59;;;;;;;5.72;2.35;;;;;;;21.88;57.77;100451.19;8389584;27;20393;-61
2022/06/21 09:51:12;;;;;;;5.45;2.60;;;;;;;22.15;55.54;100455.56;8395619;28;20044;-61
2022/06/21 10:04:28;;;;;;;9.13;2.38;;;;;;;22.26;56.58;100446.63;8391772;27;20676;-61
2022/06/21 10:08:54;;;;;;;4.20;1.80;;;;;;;22.35;53.52;100428.78;8367366;28;20103;-61
2022/06/21 10:17:36;;;;;;;4.45;2.13;;;;;;;23.36;53.68;100426.91;8332630;27;20367;-62
2022/06/21 10:22:16;;;;;;;6.75;2.15;;;;;;;23.48;53.07;100425.13;8312602;28;20048;-61
2022/06/21 10:26:42;;;;;;;4.60;2.03;;;;;;;22.94;52.95;100418.28;8315282;28;20095;-61
2022/06/21 10:31:22;;;;;;;7.82;2.33;;;;;;;22.93;54.24;100427.63;8314812;28;20044;-61
2022/06/21 10:36:01;;;;;;;6.57;2.17;;;;;;;21.97;55.17;100430.63;8315892;28;20571;-62
2022/06/21 10:40:30;;;;;;;7.40;2.47;;;;;;;21.71;55.57;100436.16;8312454;28;20061;-62
2022/06/21 10:44:59;;;;;;;4.07;2.63;;;;;;;21.54;56.31;100439.56;8308776;28;20104;-62
2022/06/21 10:49:28;;;;;;;10.82;2.80;;;;;;;21.57;56.04;100406.13;8313272;28;20417;-62
2022/06/21 10:53:49;;;;;;;5.53;2.00;;;;;;;23.09;55.96;100410.53;8316417;28;20044;-62
2022/06/21 11:02:19;;;;;;;4.80;2.60;;;;;;;27.08;46.15;100385.69;8387852;27;20389;-62
2022/06/21 11:06:59;;;;;;;8.25;2.63;;;;;;;26.51;47.74;100401.53;8367476;28;20513;-62
2022/06/21 11:11:24;;;;;;;9.50;2.60;;;;;;;26.06;47.94;100406.94;8373732;28;20052;-62
2022/06/21 11:15:48;;;;;;;3.95;2.17;;;;;;;25.90;48.68;100391.03;8356853;28;20451;-62
2022/06/21 11:20:03;;;;;;;10.90;3.20;;;;;;;28.04;47.57;100391.72;8354143;28;20113;-62
2022/06/21 11:24:29;;;;;;;7.00;2.50;;;;;;;29.86;44.21;100394.22;8360335;28;20090;-62
2022/06/21 11:28:42;;;;;;;3.95;2.47;;;;;;;28.03;46.33;100398.38;8363380;28;20076;-62
2022/06/21 11:33:22;;;;;;;7.10;2.80;;;;;;;27.66;45.39;100394.47;8352496;28;20132;-62
2022/06/21 11:37:48;;;;;;;6.72;2.58;;;;;;;29.76;43.72;100394.13;8377574;28;20049;-62
2022/06/21 11:42:08;;;;;;;4.82;2.47;;;;;;;29.51;43.10;100391.13;8359062;28;20124;-62
2022/06/21 11:46:47;;;;;;;7.13;2.17;;;;;;;29.44;43.42;100387.75;8359225;28;20041;-62
2022/06/21 11:51:00;;;;;;;7.50;2.50;;;;;;;29.87;41.70;100376.34;8337631;28;20091;-63
2022/06/21 11:55:28;;;;;;;4.85;1.98;;;;;;;31.33;41.12;100376.84;8341924;28;20036;-62
2022/06/21 11:59:48;;;;;;;6.72;2.40;;;;;;;28.55;44.27;100383.75;8360411;28;20104;-62
2022/06/21 12:08:13;;;;;;;2.72;1.90;;;;;;;26.91;45.66;100357.06;8330336;27;20392;-61
2022/06/21 12:17:21;;;;;;;2.67;2.13;;;;;;;24.30;50.36;100348.97;8318014;28;20695;-61
2022/06/21 12:21:28;;;;;;;7.05;2.58;;;;;;;23.88;51.63;100340.78;8316153;28;20057;-62
2022/06/21 12:25:28;;;;;;;5.25;2.38;;;;;;;23.66;51.43;100336.81;8301206;28;20045;-61
2022/06/21 12:29:29;;;;;;;6.72;2.83;;;;;;;23.81;50.84;100340.00;8300152;28;20050;-61
2022/06/21 12:33:33;;;;;;;4.40;2.15;;;;;;;23.75;50.16;100330.75;8285703;28;20038;-61
2022/06/21 12:37:42;;;;;;;3.67;2.38;;;;;;;23.72;52.52;100333.13;8285971;28;20125;-61
2022/06/21 12:41:55;;;;;;;5.85;2.38;;;;;;;23.37;51.69;100327.34;8290286;28;20097;-61
2022/06/21 12:46:07;;;;;;;5.45;2.50;;;;;;;23.93;51.51;100321.59;8286747;28;20077;-61
2022/06/21 12:50:36;;;;;;;7.32;2.22;;;;;;;24.18;52.20;100323.19;8291133;28;20038;-62
2022/06/21 12:55:06;;;;;;;5.75;2.53;;;;;;;24.35;51.54;100312.34;8298271;28;20104;-62
2022/06/21 13:04:04;;;;;;;4.97;2.22;;;;;;;24.44;49.31;100310.94;8371207;27;20410;-62
2022/06/21 13:08:28;;;;;;;4.60;1.63;;;;;;;24.68;48.39;100307.19;8370047;28;20493;-63
2022/06/21 13:12:55;;;;;;;6.10;1.95;;;;;;;24.57;48.63;100311.59;8367471;28;20043;-63
2022/06/21 13:25:55;;;;;;;8.15;1.67;;;;;;;25.23;46.42;100310.50;8320429;27;20359;-62
2022/06/21 13:30:22;;;;;;;3.10;1.02;;;;;;;25.22;45.81;100304.09;8312702;28;20524;-62
2022/06/21 13:34:33;;;;;;;2.35;1.05;;;;;;;25.48;44.31;100309.19;8314397;28;20041;-62
2022/06/21 13:38:49;;;;;;;3.38;1.33;;;;;;;25.41;44.44;100302.97;8312722;28;20037;-62
2022/06/21 13:42:55;;;;;;;4.20;1.13;;;;;;;25.09;44.10;100301.59;8302989;28;20546;-62
2022/06/21 13:47:06;;;;;;;3.28;1.05;;;;;;;25.04;43.33;100295.94;8298289;28;20042;-62
2022/06/21 13:55:40;;;;;;;7.88;2.03;;;;;;;24.92;44.92;100281.25;8284218;28;20402;-62
2022/06/21 13:59:47;;;;;;;3.63;1.17;;;;;;;24.91;44.26;100280.41;8263364;28;20050;-63
2022/06/21 14:08:13;;;;;;;3.47;1.02;;;;;;;24.63;45.09;100265.53;8267795;28;20388;-62
2022/06/21 14:16:41;;;;;;;2.67;0.98;;;;;;;24.62;45.59;100256.44;8374220;27;20350;-63
2022/06/21 14:29:41;;;;;;;4.20;1.40;;;;;;;24.68;46.16;100246.34;8368667;27;20360;-62
2022/06/21 14:33:52;;;;;;;3.28;1.08;;;;;;;24.66;45.66;100242.97;8344885;28;20056;-62
2022/06/21 14:38:15;;;;;;;3.28;0.90;;;;;;;24.59;47.55;100233.94;8360944;28;20341;-62
2022/06/21 14:42:23;;;;;;;4.07;1.30;;;;;;;24.81;47.56;100235.06;8327878;28;20276;-62
2022/06/21 14:46:35;;;;;;;7.03;1.52;;;;;;;24.91;47.95;100230.63;8339736;28;20045;-62
2022/06/21 14:50:46;;;;;;;4.30;1.67;;;;;;;24.99;47.33;100221.97;8337493;28;20045;-62
2022/06/21 14:55:26;;;;;;;3.60;1.27;;;;;;;24.98;48.94;100224.97;8336846;28;20045;-62
2022/06/21 15:03:58;;;;;;;3.80;1.40;;;;;;;24.96;48.00;100213.31;8315636;27;20408;-62
2022/06/21 15:08:12;;;;;;;4.07;1.55;;;;;;;25.07;47.71;100195.00;8284534;28;20660;-62
2022/06/21 15:12:16;;;;;;;2.90;1.40;;;;;;;24.96;46.54;100193.94;8281140;28;20053;-62
2022/06/21 15:16:24;;;;;;;4.75;1.42;;;;;;;24.66;47.11;100195.97;8275054;28;20061;-62
2022/06/21 15:21:05;;;;;;;5.57;1.80;;;;;;;24.85;47.42;100192.00;8302783;28;20132;-62
2022/06/21 15:25:35;;;;;;;4.03;1.52;;;;;;;25.13;49.72;100200.44;8276682;28;20514;-62
2022/06/21 15:29:57;;;;;;;7.50;1.58;;;;;;;25.04;48.11;100201.88;8300421;28;20045;-62
2022/06/21 15:34:11;;;;;;;6.63;1.73;;;;;;;24.76;49.23;100207.28;8301342;28;20418;-62
2022/06/21 15:38:12;;;;;;;;;;;;;;;24.59;48.78;100203.50;8301678;28;20068;-62
2022/06/21 15:42:29;;;;;;;2.85;1.50;;;;;;;24.60;49.24;100205.19;8296062;28;20372;-62
2022/06/21 15:46:33;;;;;;;6.72;2.00;;;;;;;24.61;50.18;100204.13;8296426;28;20057;-62
2022/06/21 15:55:26;;;;;;;6.88;1.88;;;;;;;24.73;49.68;100207.78;8327498;27;20396;-62
2022/06/21 15:59:47;;;;;;;4.90;1.65;;;;;;;24.68;49.60;100202.13;8297201;28;20080;-62
2022/06/21 16:08:21;;;;;;;2.92;1.50;;;;;;;24.35;51.10;100190.75;8312034;27;20400;-62
2022/06/21 16:12:43;;;;;;;5.85;1.20;;;;;;;24.16;50.64;100186.38;8298217;28;20076;-62
2022/06/21 16:16:50;;;;;;;4.45;1.40;;;;;;;24.09;51.86;100191.16;8291321;28;20033;-62
2022/06/21 16:20:51;;;;;;;7.60;1.90;;;;;;;24.06;51.17;100188.88;8299069;28;20047;-62
2022/06/21 16:25:01;;;;;;;3.10;1.48;;;;;;;24.22;50.27;100185.44;8298310;28;20052;-62
2022/06/21 16:29:26;;;;;;;3.33;1.48;;;;;;;24.27;50.87;100182.78;8297530;28;20042;-62
2022/06/21 16:33:29;;;;;;;4.97;1.55;;;;;;;24.41;50.75;100178.72;8295771;28;20045;-62
2022/06/21 16:37:39;;;;;;;5.07;1.63;;;;;;;24.17;52.36;100177.84;8295802;28;20567;-62
2022/06/21 16:42:58;;;;;;;6.85;1.98;;;;;;;23.92;53.28;100176.31;8290095;28;20029;-62
2022/06/21 16:46:26;;;;;;;5.75;2.03;;;;;;;23.73;53.51;100185.72;8295500;28;20030;-62
2022/06/21 16:50:35;;;;;;;6.97;2.20;;;;;;;23.68;54.67;100182.81;8297275;28;20417;-62
2022/06/21 16:54:39;;;;;;;7.18;2.08;;;;;;;23.56;55.23;100180.00;8300523;28;20054;-62
2022/06/21 16:58:44;;;;;;;5.73;2.23;;;;;;;23.49;55.40;100189.44;8267064;28;20164;-62
2022/06/21 17:02:48;;;;;;;8.35;2.40;;;;;;;23.45;56.26;100183.53;8263000;28;20414;-62
2022/06/21 17:06:53;;;;;;;6.50;2.40;;;;;;;23.40;56.75;100177.03;8275794;28;20472;-62
2022/06/21 17:11:27;;;;;;;5.40;2.45;;;;;;;23.30;55.96;100173.97;8298039;28;20091;-62
2022/06/21 17:15:32;;;;;;;7.75;2.25;;;;;;;23.26;55.24;100173.59;8292441;28;20412;-62
2022/06/21 17:19:46;;;;;;;5.32;2.53;;;;;;;23.28;55.96;100184.41;8270615;28;20066;-62
2022/06/21 17:24:10;;;;;;;3.83;2.00;;;;;;;23.25;56.86;100177.44;8274329;28;20045;-62
2022/06/21 17:28:34;;;;;;;5.10;2.63;;;;;;;23.13;56.96;100163.53;8274989;28;20733;-62
2022/06/21 17:32:51;;;;;;;;;;;;;;;23.03;57.70;100168.72;8282384;28;20057;-62
2022/06/21 17:45:51;;;;;;;5.80;2.40;;;;;;;23.16;57.16;100163.09;8391314;27;20369;-62
2022/06/21 17:49:56;;;;;;;6.80;2.83;;;;;;;23.16;57.18;100163.09;8376297;28;20036;-62
2022/06/21 17:54:18;;;;;;;9.77;2.92;;;;;;;23.24;56.92;100169.38;8375493;28;20044;-62
2022/06/21 17:58:43;;;;;;;5.05;2.17;;;;;;;23.12;56.19;100174.81;8343918;28;20144;-62
2022/06/21 18:02:55;;;;;;;8.02;2.50;;;;;;;23.03;57.39;100168.72;8341843;28;20037;-62
2022/06/21 18:07:12;;;;;;;6.15;2.22;;;;;;;22.94;57.99;100180.31;8341915;28;20575;-62
2022/06/21 18:11:41;;;;;;;5.20;2.10;;;;;;;22.92;59.09;100182.44;8341220;28;20116;-62
2022/06/21 18:16:06;;;;;;;7.63;2.38;;;;;;;22.82;59.64;100180.22;8342003;28;20048;-62
2022/06/21 18:20:32;;;;;;;8.05;2.70;;;;;;;22.79;59.73;100190.84;8340337;28;20486;-62
2022/06/21 18:25:01;;;;;;;4.30;2.38;;;;;;;22.64;60.34;100180.19;8339548;28;20033;-62
2022/06/21 18:29:26;;;;;;;4.60;2.22;;;;;;;22.59;60.95;100182.78;8342296;28;20501;-64
2022/06/21 18:33:27;;;;;;;8.05;2.33;;;;;;;22.52;61.68;100182.00;8334171;28;20396;-62
2022/06/21 18:38:04;;;;;;;7.43;2.90;;;;;;;22.50;61.47;100183.28;8336133;28;20105;-62
2022/06/21 18:42:37;;;;;;;6.32;2.40;;;;;;;22.39;61.71;100187.59;8333850;28;20052;-62
2022/06/21 18:46:52;;;;;;;6.57;2.28;;;;;;;22.28;62.38;100187.47;8335265;28;20404;-62
2022/06/21 18:51:05;;;;;;;5.65;2.25;;;;;;;22.21;62.20;100190.28;8339648;28;20326;-62
2022/06/21 18:55:32;;;;;;;3.30;2.20;;;;;;;22.13;62.59;100176.78;8327809;28;20048;-62
2022/06/21 18:59:49;;;;;;;3.15;2.13;;;;;;;22.10;62.49;100177.22;8312038;28;20513;-62
2022/06/21 19:04:01;;;;;;;4.85;2.40;;;;;;;21.98;63.16;100173.50;8318991;28;20029;-62
2022/06/21 19:08:32;;;;;;;7.13;2.70;;;;;;;21.89;62.95;100174.00;8319763;28;20095;-62
2022/06/21 19:12:39;;;;;;;4.32;2.30;;;;;;;21.80;63.67;100165.16;8319055;28;20053;-62
2022/06/21 19:17:10;;;;;;;6.97;2.35;;;;;;;21.74;62.96;100163.28;8317615;28;20037;-62
2022/06/21 19:21:22;;;;;;;5.85;2.30;;;;;;;21.75;62.28;100153.13;8318898;28;20045;-62
2022/06/21 19:25:52;;;;;;;3.55;2.22;;;;;;;21.67;61.43;100159.69;8319941;28;20037;-62
2022/06/21 19:30:18;;;;;;;4.75;2.20;;;;;;;21.60;62.61;100161.66;8321222;28;20120;-62
2022/06/21 19:34:36;;;;;;;6.55;2.10;;;;;;;21.56;62.52;100165.88;8323283;28;20033;-62
2022/06/21 19:39:04;;;;;;;3.47;2.15;;;;;;;21.49;63.00;100170.59;8324649;28;20433;-62
2022/06/21 19:47:44;;;;;;;5.53;2.10;;;;;;;21.40;62.70;100174.66;8404375;27;20533;-62
2022/06/21 19:51:52;;;;;;;2.13;1.50;;;;;;;21.30;62.19;100185.28;8381940;28;20044;-62
2022/06/21 19:55:53;;;;;;;11.27;2.60;;;;;;;21.18;61.86;100176.03;8385786;28;20052;-62
2022/06/21 20:04:58;;;;;;;4.32;2.00;;;;;;;20.85;63.09;100180.72;8397622;27;20450;-62
2022/06/21 20:09:03;;;;;;;3.20;2.05;;;;;;;20.82;62.82;100189.41;8384723;28;20037;-62
2022/06/21 20:13:18;;;;;;;6.72;3.00;;;;;;;20.65;63.70;100197.25;8385000;28;20041;-62
2022/06/21 20:17:26;;;;;;;5.05;2.45;;;;;;;20.50;64.54;100198.56;8385872;28;20127;-62
2022/06/21 20:21:50;;;;;;;8.63;2.53;;;;;;;20.41;64.38;100202.56;8384559;28;20114;-62
2022/06/21 20:26:01;;;;;;;6.72;2.50;;;;;;;20.25;65.57;100206.56;8378662;28;20504;-62
2022/06/21 20:30:03;;;;;;;7.40;2.40;;;;;;;20.09;66.26;100225.31;8375409;28;20028;-62
2022/06/21 20:34:11;;;;;;;8.85;2.53;;;;;;;19.91;67.35;100230.56;8372707;28;20040;-62
2022/06/21 20:38:18;;;;;;;7.18;2.35;;;;;;;19.71;69.22;100221.44;8373866;28;20419;-62
2022/06/21 20:43:31;;;;;;;11.30;2.67;;;;;;;19.64;69.37;100215.09;8375697;28;20036;-62
2022/06/21 20:46:57;;;;;;;6.38;2.00;;;;;;;19.59;69.19;100209.34;8383363;28;20040;-62
2022/06/21 20:51:25;;;;;;;5.95;2.70;;;;;;;19.36;70.09;100205.06;8384399;28;20037;-62
2022/06/21 20:55:27;;;;;;;8.63;2.30;;;;;;;19.29;70.91;100203.34;8376935;28;20428;-62
2022/06/21 20:59:34;;;;;;;10.50;2.33;;;;;;;19.28;69.87;100205.22;8383937;28;20033;-62
2022/06/21 21:03:38;;;;;;;10.05;2.38;;;;;;;19.21;70.62;100201.59;8383187;28;20068;-62
2022/06/21 21:08:07;;;;;;;6.53;2.47;;;;;;;19.17;70.56;100219.50;8368558;28;20048;-62
2022/06/21 21:12:10;;;;;;;8.23;2.30;;;;;;;18.90;72.48;100214.91;8380053;28;20078;-62
2022/06/21 21:16:22;;;;;;;18.90;2.67;;;;;;;18.95;72.73;100215.16;8355527;28;20087;-62
2022/06/21 21:20:28;;;;;;;7.65;2.53;;;;;;;18.85;71.80;100211.09;8358868;28;20122;-62
2022/06/21 21:24:34;;;;;;;9.20;2.47;;;;;;;18.92;71.16;100204.59;8359130;28;20041;-62
2022/06/21 21:28:35;;;;;;;8.57;2.47;;;;;;;18.86;71.91;100205.41;8359901;28;20049;-62